Time;durP1;ratioP1;P1;durP2;ratioP2;P2;SDS_P1;SDS_P2;PMS_P1;PMS_P2;Temp;Humidity;BMP_temperature;BMP_pressure;BME280_temperature;BME280_humidity;BME280_pressure;Samples;Min_cycle;Max_cycle;Signal;HPM_P1;HPM_P2
2024/01/14 00:02:07;;;;;;;10.07;4.63;;;3.10;99.90;;;;;;5014178;28;20104;-69
2024/01/14 00:04:34;;;;;;;11.52;5.28;;;3.10;99.90;;;;;;5013347;28;20056;-68
2024/01/14 00:06:59;;;;;;;7.75;4.85;;;3.10;99.90;;;;;;5019546;28;20025;-69
2024/01/14 00:09:25;;;;;;;8.23;5.07;;;3.10;99.90;;;;;;5013292;28;20029;-68
2024/01/14 00:11:50;;;;;;;9.43;5.22;;;3.10;99.90;;;;;;5012616;28;20079;-69
2024/01/14 00:14:16;;;;;;;12.60;5.75;;;3.10;99.90;;;;;;5018158;28;20395;-69
2024/01/14 00:16:41;;;;;;;9.23;5.05;;;3.10;99.90;;;;;;5012692;28;20037;-69
2024/01/14 00:19:09;;;;;;;11.88;5.63;;;3.00;99.90;;;;;;5008881;28;20577;-69
2024/01/14 00:21:35;;;;;;;6.65;4.70;;;3.10;99.90;;;;;;5010771;28;20042;-69
2024/01/14 00:24:00;;;;;;;7.05;4.30;;;3.00;99.90;;;;;;5018610;28;20485;-69
2024/01/14 00:26:27;;;;;;;8.65;4.78;;;3.00;99.90;;;;;;5019736;28;20447;-69
2024/01/14 00:28:53;;;;;;;9.85;4.63;;;2.90;99.90;;;;;;5018123;28;20070;-69
2024/01/14 00:31:19;;;;;;;8.15;4.07;;;2.90;99.90;;;;;;5018618;28;20033;-68
2024/01/14 00:33:44;;;;;;;8.70;4.63;;;2.90;99.90;;;;;;5018121;28;20090;-69
2024/01/14 00:36:10;;;;;;;9.10;4.45;;;3.00;99.90;;;;;;5011767;28;20063;-69
2024/01/14 00:38:36;;;;;;;6.85;4.32;;;3.00;99.90;;;;;;5017511;28;20033;-68
2024/01/14 00:41:02;;;;;;;6.60;4.20;;;3.00;99.90;;;;;;5015458;28;20046;-69
2024/01/14 00:43:27;;;;;;;10.73;5.13;;;2.90;99.90;;;;;;5014117;28;20468;-68
2024/01/14 00:45:53;;;;;;;7.90;4.45;;;2.90;99.90;;;;;;5004967;28;20045;-68
2024/01/14 00:48:19;;;;;;;8.27;4.60;;;2.90;99.90;;;;;;5012285;28;20026;-69
2024/01/14 00:50:44;;;;;;;8.15;4.85;;;2.90;99.90;;;;;;5018736;28;20041;-68
2024/01/14 00:53:10;;;;;;;7.57;3.92;;;2.90;99.90;;;;;;5010094;28;20026;-68
2024/01/14 00:55:36;;;;;;;8.65;5.40;;;3.00;99.90;;;;;;5012469;28;20476;-68
2024/01/14 00:58:02;;;;;;;10.48;4.93;;;3.00;99.90;;;;;;5009685;28;20043;-69
2024/01/14 01:00:27;;;;;;;7.97;5.38;;;3.00;99.90;;;;;;5013271;28;20989;-69
2024/01/14 01:02:53;;;;;;;11.57;5.10;;;3.00;99.90;;;;;;5004400;28;20072;-69
2024/01/14 01:05:19;;;;;;;6.68;4.10;;;3.10;99.90;;;;;;5004665;28;20026;-69
2024/01/14 01:07:45;;;;;;;8.55;4.35;;;3.10;99.90;;;;;;5006805;28;20504;-69
2024/01/14 01:10:11;;;;;;;10.38;4.82;;;3.10;99.90;;;;;;5002666;28;20041;-68
2024/01/14 01:12:36;;;;;;;8.23;4.47;;;3.10;99.90;;;;;;5007127;28;20036;-69
2024/01/14 01:15:05;;;;;;;7.32;3.40;;;3.20;99.90;;;;;;5009403;28;20485;-69
2024/01/14 01:17:30;;;;;;;9.45;4.75;;;3.20;99.90;;;;;;5010625;28;20029;-69
2024/01/14 01:19:56;;;;;;;11.05;4.00;;;3.10;99.90;;;;;;5003907;28;20556;-69
2024/01/14 01:22:21;;;;;;;10.77;3.88;;;3.10;99.90;;;;;;5016124;28;20793;-68
2024/01/14 01:24:47;;;;;;;6.82;4.10;;;3.10;99.90;;;;;;5015946;28;20124;-69
2024/01/14 01:27:12;;;;;;;8.68;4.35;;;3.10;99.90;;;;;;5016734;28;20095;-69
2024/01/14 01:29:38;;;;;;;10.10;4.25;;;3.10;99.90;;;;;;5015776;28;20036;-62
2024/01/14 01:32:04;;;;;;;7.47;3.60;;;3.10;99.90;;;;;;5004907;28;20387;-63
2024/01/14 01:34:29;;;;;;;10.48;4.20;;;3.10;99.90;;;;;;5012753;28;20033;-64
2024/01/14 01:36:55;;;;;;;11.23;3.80;;;3.10;99.90;;;;;;5011863;28;20029;-63
2024/01/14 01:39:20;;;;;;;10.57;3.95;;;3.10;99.90;;;;;;5009862;28;20029;-64
2024/01/14 01:41:45;;;;;;;14.98;5.40;;;3.10;99.90;;;;;;5011442;28;20034;-63
2024/01/14 01:44:11;;;;;;;6.38;3.50;;;3.20;99.90;;;;;;5014708;28;20684;-64
2024/01/14 01:46:37;;;;;;;10.05;4.00;;;3.10;99.90;;;;;;5016304;28;20021;-63
2024/01/14 01:49:03;;;;;;;6.55;3.22;;;3.20;99.90;;;;;;5006813;28;20025;-64
2024/01/14 01:51:30;;;;;;;9.85;2.85;;;3.20;99.90;;;;;;5004864;28;20050;-64
2024/01/14 01:53:56;;;;;;;7.10;3.28;;;3.20;99.90;;;;;;5009636;28;20036;-63
2024/01/14 01:56:23;;;;;;;5.80;2.88;;;3.30;99.90;;;;;;5017305;28;20033;-64
2024/01/14 01:58:49;;;;;;;7.93;3.22;;;3.30;99.90;;;;;;5005813;28;20030;-63
2024/01/14 02:01:15;;;;;;;9.25;3.25;;;3.30;99.90;;;;;;5017310;28;20033;-64
2024/01/14 02:03:41;;;;;;;3.63;2.30;;;3.30;99.90;;;;;;5016132;28;20026;-64
2024/01/14 02:06:09;;;;;;;5.93;3.08;;;3.20;99.90;;;;;;5008991;28;20034;-64
2024/01/14 02:08:36;;;;;;;4.78;2.53;;;3.20;99.90;;;;;;5011946;28;20052;-63
2024/01/14 02:11:02;;;;;;;4.15;2.38;;;3.20;99.90;;;;;;5015708;28;20037;-65
2024/01/14 02:13:28;;;;;;;6.88;2.78;;;3.20;99.90;;;;;;5017403;28;20038;-63
2024/01/14 02:15:53;;;;;;;7.80;3.17;;;3.20;99.90;;;;;;5017652;28;20037;-64
2024/01/14 02:18:19;;;;;;;7.70;2.60;;;3.20;99.90;;;;;;5014240;28;20041;-67
2024/01/14 02:20:44;;;;;;;5.70;2.50;;;3.20;99.90;;;;;;5014964;28;20044;-64
2024/01/14 02:23:13;;;;;;;7.28;2.55;;;3.20;99.90;;;;;;5015317;28;20018;-64
2024/01/14 02:25:39;;;;;;;4.03;2.22;;;3.20;99.90;;;;;;5015207;28;20041;-64
2024/01/14 02:28:05;;;;;;;5.75;2.38;;;3.10;99.90;;;;;;5014011;28;20033;-63
2024/01/14 02:30:30;;;;;;;4.53;3.08;;;3.10;99.90;;;;;;5015159;28;20087;-63
2024/01/14 02:32:56;;;;;;;5.65;2.47;;;3.10;99.90;;;;;;5018672;28;20029;-64
2024/01/14 02:35:21;;;;;;;2.75;2.28;;;3.10;99.90;;;;;;5016740;28;20112;-63
2024/01/14 02:37:47;;;;;;;6.72;2.63;;;3.10;99.90;;;;;;5007461;28;20053;-64
2024/01/14 02:40:13;;;;;;;7.15;3.25;;;3.10;99.90;;;;;;5008665;28;20028;-63
2024/01/14 02:42:39;;;;;;;5.65;1.98;;;3.10;99.90;;;;;;5011203;28;20510;-63
2024/01/14 02:45:05;;;;;;;10.40;2.58;;;3.10;99.90;;;;;;5005910;28;20037;-64
2024/01/14 02:47:31;;;;;;;7.25;2.17;;;3.10;99.90;;;;;;5012310;28;20060;-64
2024/01/14 02:49:56;;;;;;;5.55;2.00;;;3.10;99.90;;;;;;5013182;28;20204;-63
2024/01/14 02:52:22;;;;;;;5.43;1.83;;;3.20;99.90;;;;;;5011154;28;20116;-63
2024/01/14 02:54:48;;;;;;;5.57;2.45;;;3.20;99.90;;;;;;5006611;28;21011;-64
2024/01/14 02:57:13;;;;;;;12.55;2.08;;;3.20;99.90;;;;;;5007455;28;20377;-63
2024/01/14 02:59:39;;;;;;;5.07;2.47;;;3.20;99.90;;;;;;5010399;28;20049;-63
2024/01/14 03:02:04;;;;;;;8.57;2.60;;;3.20;99.90;;;;;;5003710;28;20036;-64
2024/01/14 03:04:30;;;;;;;6.40;2.20;;;3.20;99.90;;;;;;5014791;28;20119;-63
2024/01/14 03:06:55;;;;;;;6.03;1.92;;;3.20;99.90;;;;;;5007409;28;20244;-63
2024/01/14 03:09:21;;;;;;;7.00;2.33;;;3.20;99.90;;;;;;5012006;28;20021;-63
2024/01/14 03:11:47;;;;;;;11.18;2.50;;;3.20;99.90;;;;;;5013799;28;20537;-63
2024/01/14 03:14:13;;;;;;;5.75;1.80;;;3.20;99.90;;;;;;5017705;28;20367;-63
2024/01/14 03:16:38;;;;;;;6.43;1.60;;;3.20;99.90;;;;;;5018778;28;20029;-63
2024/01/14 03:19:03;;;;;;;11.43;2.80;;;3.20;99.90;;;;;;5017831;28;20108;-63
2024/01/14 03:21:29;;;;;;;7.78;2.13;;;3.20;99.90;;;;;;5018179;28;20152;-64
2024/01/14 03:23:54;;;;;;;5.80;2.13;;;3.20;99.90;;;;;;5017627;28;20033;-64
2024/01/14 03:26:20;;;;;;;6.07;1.77;;;3.20;99.90;;;;;;5019143;28;20049;-64
2024/01/14 03:28:45;;;;;;;6.35;2.10;;;3.20;99.90;;;;;;5020006;28;20047;-63
2024/01/14 03:31:17;;;;;;;3.72;1.73;;;3.20;99.90;;;;;;5022675;28;20432;-64
2024/01/14 03:33:43;;;;;;;4.15;1.55;;;3.20;99.90;;;;;;5018589;28;20580;-64
2024/01/14 03:36:13;;;;;;;6.43;1.73;;;3.20;99.90;;;;;;5022404;28;20030;-64
2024/01/14 03:38:38;;;;;;;10.90;2.22;;;3.20;99.90;;;;;;5022422;28;20025;-64
2024/01/14 03:41:04;;;;;;;4.45;1.75;;;3.20;99.90;;;;;;5024376;28;20033;-63
2024/01/14 03:43:29;;;;;;;6.10;1.75;;;3.20;99.90;;;;;;5022280;28;20049;-63
2024/01/14 03:45:55;;;;;;;8.40;1.80;;;3.10;99.90;;;;;;5022543;28;20112;-64
2024/01/14 03:48:20;;;;;;;4.18;1.55;;;3.20;99.90;;;;;;5022279;28;20075;-63
2024/01/14 03:50:46;;;;;;;6.43;1.65;;;3.20;99.90;;;;;;5022106;28;20029;-64
2024/01/14 03:53:11;;;;;;;6.25;1.73;;;3.20;99.90;;;;;;5024162;28;20028;-64
2024/01/14 03:55:37;;;;;;;3.65;1.20;;;3.20;99.90;;;;;;5020768;28;20021;-64
2024/01/14 03:58:02;;;;;;;7.38;1.65;;;3.20;99.90;;;;;;5021936;28;20041;-63
2024/01/14 04:00:28;;;;;;;6.15;1.58;;;3.20;99.90;;;;;;5022451;28;20030;-63
2024/01/14 04:02:53;;;;;;;8.25;2.17;;;3.10;99.90;;;;;;5016730;28;20025;-64
2024/01/14 04:05:19;;;;;;;11.20;1.80;;;3.10;99.90;;;;;;5022041;28;20022;-63
2024/01/14 04:07:44;;;;;;;7.43;1.75;;;3.10;99.90;;;;;;5023808;28;20034;-63
2024/01/14 04:10:12;;;;;;;4.80;1.80;;;3.10;99.90;;;;;;5021764;28;20025;-63
2024/01/14 04:12:39;;;;;;;7.05;2.00;;;3.10;99.90;;;;;;5022002;28;20493;-63
2024/01/14 04:15:06;;;;;;;5.95;2.15;;;3.10;99.90;;;;;;5021762;28;20025;-63
2024/01/14 04:17:32;;;;;;;14.05;2.35;;;3.10;99.90;;;;;;5017467;28;20029;-63
2024/01/14 04:19:59;;;;;;;9.48;1.65;;;3.10;99.90;;;;;;5021557;28;20013;-63
2024/01/14 04:22:24;;;;;;;9.60;2.13;;;3.00;99.90;;;;;;5021558;28;20057;-63
2024/01/14 04:24:50;;;;;;;6.10;1.85;;;3.00;99.90;;;;;;5022162;28;20099;-63
2024/01/14 04:27:15;;;;;;;10.18;2.35;;;3.00;99.90;;;;;;5021620;28;20021;-64
2024/01/14 04:29:41;;;;;;;7.13;1.80;;;3.00;99.90;;;;;;5021350;28;20379;-64
2024/01/14 04:32:06;;;;;;;10.73;1.83;;;3.00;99.90;;;;;;5011760;28;20025;-63
2024/01/14 04:34:32;;;;;;;5.78;1.55;;;3.00;99.90;;;;;;5014594;28;20497;-63
2024/01/14 04:36:58;;;;;;;6.35;1.30;;;3.00;99.90;;;;;;5017003;28;20502;-64
2024/01/14 04:39:24;;;;;;;9.98;1.70;;;3.00;99.90;;;;;;5020510;28;20059;-63
2024/01/14 04:41:49;;;;;;;5.65;1.35;;;3.00;99.90;;;;;;5017731;28;20033;-63
2024/01/14 04:44:15;;;;;;;9.13;1.52;;;3.00;99.90;;;;;;5018684;28;20048;-63
2024/01/14 04:46:44;;;;;;;14.48;2.22;;;3.00;99.90;;;;;;5012499;28;20037;-64
2024/01/14 04:49:10;;;;;;;11.23;1.60;;;3.00;99.90;;;;;;5013258;28;20600;-63
2024/01/14 04:51:35;;;;;;;6.13;1.38;;;3.00;99.90;;;;;;5010491;28;20041;-63
2024/01/14 04:54:02;;;;;;;3.63;1.15;;;2.90;99.90;;;;;;5014888;28;20433;-63
2024/01/14 04:56:28;;;;;;;12.32;2.05;;;2.90;99.90;;;;;;5020112;28;20035;-64
2024/01/14 04:58:54;;;;;;;6.95;1.45;;;2.80;99.90;;;;;;5009150;28;20382;-63
2024/01/14 05:01:20;;;;;;;7.20;1.67;;;2.80;99.90;;;;;;5008106;28;20041;-63
2024/01/14 05:03:45;;;;;;;5.82;1.58;;;2.80;99.90;;;;;;5013892;28;20036;-63
2024/01/14 05:06:11;;;;;;;7.45;1.45;;;2.80;99.90;;;;;;5018423;28;20568;-63
2024/01/14 05:08:38;;;;;;;8.73;1.50;;;2.80;99.90;;;;;;5018116;28;20166;-63
2024/01/14 05:11:04;;;;;;;16.48;2.03;;;2.80;99.90;;;;;;5014256;28;20024;-63
2024/01/14 05:13:29;;;;;;;7.35;1.60;;;2.80;99.90;;;;;;5016228;28;20401;-63
2024/01/14 05:15:55;;;;;;;8.65;1.92;;;2.80;99.90;;;;;;5018566;28;20489;-63
2024/01/14 05:18:20;;;;;;;10.63;1.48;;;2.80;99.90;;;;;;5016729;28;20539;-63
2024/01/14 05:20:46;;;;;;;10.82;2.30;;;2.80;99.90;;;;;;5008698;28;20131;-63
2024/01/14 05:23:11;;;;;;;6.95;1.65;;;2.80;99.90;;;;;;5013033;28;20037;-63
2024/01/14 05:25:37;;;;;;;4.95;1.45;;;2.80;99.90;;;;;;5010819;28;20413;-63
2024/01/14 05:28:02;;;;;;;5.32;1.60;;;2.80;99.90;;;;;;5019994;28;20104;-63
2024/01/14 05:30:28;;;;;;;12.15;1.95;;;2.90;99.90;;;;;;5013829;28;20374;-63
2024/01/14 05:32:53;;;;;;;14.45;2.38;;;2.90;99.90;;;;;;5018204;28;20516;-63
2024/01/14 05:35:19;;;;;;;18.05;2.95;;;2.90;99.90;;;;;;5018337;28;20025;-63
2024/01/14 05:37:44;;;;;;;8.50;2.20;;;2.90;99.90;;;;;;5013714;28;20029;-63
2024/01/14 05:40:10;;;;;;;4.40;1.23;;;2.90;99.90;;;;;;5018034;28;20474;-63
2024/01/14 05:42:40;;;;;;;6.00;1.88;;;2.90;99.90;;;;;;5012363;28;20048;-63
2024/01/14 05:45:06;;;;;;;9.55;1.88;;;2.90;99.90;;;;;;5010274;28;20029;-63
2024/01/14 05:47:32;;;;;;;9.00;1.58;;;2.90;99.90;;;;;;5017939;28;20116;-63
2024/01/14 05:49:58;;;;;;;5.40;1.70;;;2.90;99.90;;;;;;5009980;28;20282;-63
2024/01/14 05:52:23;;;;;;;7.45;1.90;;;2.90;99.90;;;;;;5017697;28;20210;-63
2024/01/14 05:54:49;;;;;;;8.68;2.00;;;3.00;99.90;;;;;;5016087;28;20485;-63
2024/01/14 05:57:14;;;;;;;6.93;1.20;;;3.00;99.90;;;;;;5014271;28;20040;-63
2024/01/14 05:59:40;;;;;;;7.72;1.55;;;3.00;99.90;;;;;;5018082;28;20318;-63
2024/01/14 06:02:06;;;;;;;9.30;1.77;;;3.00;99.90;;;;;;5012484;28;20119;-63
2024/01/14 06:04:32;;;;;;;8.00;1.35;;;3.00;99.90;;;;;;5016066;28;20096;-63
2024/01/14 06:06:57;;;;;;;4.70;1.50;;;3.00;99.90;;;;;;5014014;28;20030;-63
2024/01/14 06:09:23;;;;;;;11.77;1.50;;;2.90;99.90;;;;;;5014972;28;20021;-64
2024/01/14 06:11:48;;;;;;;8.20;1.30;;;3.00;99.90;;;;;;5019089;28;20032;-64
2024/01/14 06:14:14;;;;;;;10.25;1.80;;;3.00;99.90;;;;;;5011287;28;20033;-64
2024/01/14 06:16:39;;;;;;;7.60;1.83;;;3.00;99.90;;;;;;5011074;28;20038;-63
2024/01/14 06:19:05;;;;;;;6.80;0.95;;;3.00;99.90;;;;;;5015599;28;20040;-63
2024/01/14 06:21:30;;;;;;;7.55;1.42;;;3.00;99.90;;;;;;5016782;28;20502;-63
2024/01/14 06:23:56;;;;;;;11.82;2.30;;;2.90;99.90;;;;;;5016015;28;20032;-63
2024/01/14 06:26:21;;;;;;;5.22;1.83;;;2.90;99.90;;;;;;5015481;28;20021;-63
2024/01/14 06:28:47;;;;;;;3.80;1.38;;;2.90;99.90;;;;;;5010355;28;20160;-63
2024/01/14 06:31:12;;;;;;;5.68;1.00;;;2.90;99.90;;;;;;5008949;28;20537;-63
2024/01/14 06:33:38;;;;;;;3.20;1.20;;;2.90;99.90;;;;;;5017181;28;20409;-63
2024/01/14 06:36:05;;;;;;;5.45;1.35;;;2.80;99.90;;;;;;5012435;28;20034;-63
2024/01/14 06:38:30;;;;;;;7.00;1.42;;;2.80;99.90;;;;;;5009106;28;20393;-63
2024/01/14 06:40:56;;;;;;;5.40;2.10;;;2.80;99.90;;;;;;5016890;28;20037;-63
2024/01/14 06:43:21;;;;;;;10.60;1.25;;;2.80;99.90;;;;;;5018252;28;20029;-63
2024/01/14 06:45:47;;;;;;;3.55;1.30;;;2.80;99.90;;;;;;5010077;28;20402;-63
2024/01/14 06:48:12;;;;;;;4.00;1.20;;;2.80;99.90;;;;;;5012943;28;20033;-63
2024/01/14 06:50:38;;;;;;;5.80;1.52;;;2.80;99.90;;;;;;5014903;28;20045;-63
2024/01/14 06:53:03;;;;;;;4.55;1.25;;;2.80;99.90;;;;;;5013622;28;20033;-63
2024/01/14 06:55:29;;;;;;;10.05;1.60;;;2.80;99.90;;;;;;5018551;28;20033;-63
2024/01/14 06:57:54;;;;;;;4.55;1.15;;;2.80;99.90;;;;;;5012981;28;20195;-63
2024/01/14 07:00:20;;;;;;;4.95;1.23;;;2.80;99.90;;;;;;5018586;28;20043;-64
2024/01/14 07:02:46;;;;;;;4.75;1.67;;;2.80;99.90;;;;;;5010219;28;20033;-63
2024/01/14 07:05:12;;;;;;;7.30;1.50;;;2.80;99.90;;;;;;5014472;28;20030;-63
2024/01/14 07:07:37;;;;;;;7.63;1.70;;;2.80;99.90;;;;;;5010556;28;20022;-63
2024/01/14 07:10:04;;;;;;;8.00;1.33;;;2.80;99.90;;;;;;5021159;28;20037;-64
2024/01/14 07:12:30;;;;;;;4.90;2.08;;;2.70;99.90;;;;;;5016723;28;20037;-63
2024/01/14 07:14:56;;;;;;;3.88;0.95;;;2.70;99.90;;;;;;5015029;28;20041;-64
2024/01/14 07:17:21;;;;;;;3.97;1.10;;;2.70;99.90;;;;;;5014446;28;20114;-63
2024/01/14 07:19:47;;;;;;;6.78;1.33;;;2.70;99.90;;;;;;5018904;28;20036;-63
2024/01/14 07:22:13;;;;;;;5.07;1.15;;;2.80;99.90;;;;;;5010213;28;20037;-63
2024/01/14 07:24:39;;;;;;;5.68;1.50;;;2.80;99.90;;;;;;5019265;28;20034;-63
2024/01/14 07:27:04;;;;;;;5.82;1.23;;;2.80;99.90;;;;;;5010974;28;20091;-63
2024/01/14 07:29:31;;;;;;;5.43;1.45;;;2.80;99.90;;;;;;5022135;28;20464;-63
2024/01/14 07:31:56;;;;;;;11.75;1.98;;;2.80;99.90;;;;;;5016812;28;20029;-63
2024/01/14 07:34:22;;;;;;;7.45;1.52;;;2.80;99.90;;;;;;5017250;28;20103;-63
2024/01/14 07:36:47;;;;;;;4.13;1.25;;;2.80;99.90;;;;;;5017414;28;20022;-63
2024/01/14 07:39:14;;;;;;;3.60;1.70;;;2.80;99.90;;;;;;5017762;28;20424;-62
2024/01/14 07:41:39;;;;;;;1.60;0.90;;;2.80;99.90;;;;;;5015682;28;20117;-62
2024/01/14 07:44:05;;;;;;;6.10;1.23;;;2.80;99.90;;;;;;5014108;28;20132;-63
2024/01/14 07:46:31;;;;;;;6.95;1.30;;;2.80;99.90;;;;;;5016719;28;20034;-63
2024/01/14 07:48:57;;;;;;;8.73;2.35;;;2.90;99.90;;;;;;5017223;28;20033;-63
2024/01/14 07:51:22;;;;;;;7.43;1.55;;;2.90;99.90;;;;;;5014327;28;20025;-62
2024/01/14 07:53:47;;;;;;;7.03;1.60;;;2.90;99.90;;;;;;5017530;28;20032;-62
2024/01/14 07:56:13;;;;;;;5.97;1.25;;;3.00;99.90;;;;;;5014885;28;20049;-63
2024/01/14 07:58:39;;;;;;;8.00;1.80;;;3.00;99.90;;;;;;5010602;28;20498;-63
2024/01/14 08:01:06;;;;;;;5.50;1.60;;;3.00;99.90;;;;;;5014450;28;20025;-62
2024/01/14 08:03:32;;;;;;;6.43;1.88;;;3.00;99.90;;;;;;5009868;28;20113;-64
2024/01/14 08:05:57;;;;;;;7.78;1.52;;;3.00;99.90;;;;;;5009304;28;20105;-62
2024/01/14 08:08:23;;;;;;;5.78;1.40;;;3.00;99.90;;;;;;5005482;28;20022;-63
2024/01/14 08:10:49;;;;;;;9.23;1.77;;;3.10;99.90;;;;;;5013840;28;20047;-63
2024/01/14 08:13:15;;;;;;;6.72;1.80;;;3.10;99.90;;;;;;5019423;28;20064;-62
2024/01/14 08:15:41;;;;;;;5.07;1.15;;;3.20;99.90;;;;;;5009019;28;20136;-63
2024/01/14 08:18:06;;;;;;;5.90;1.17;;;3.10;99.90;;;;;;5009202;28;20485;-65
2024/01/14 08:20:32;;;;;;;7.32;2.50;;;3.20;99.90;;;;;;5008104;28;20061;-65
2024/01/14 08:22:58;;;;;;;7.95;1.80;;;3.20;99.90;;;;;;5012925;28;20021;-65
2024/01/14 08:25:24;;;;;;;3.78;1.67;;;3.30;99.90;;;;;;5014382;28;20026;-65
2024/01/14 08:27:52;;;;;;;7.28;1.50;;;3.30;99.90;;;;;;5016304;28;20657;-65
2024/01/14 08:30:18;;;;;;;9.35;1.85;;;3.40;99.90;;;;;;5015680;28;20029;-66
2024/01/14 08:32:43;;;;;;;7.85;1.60;;;3.40;99.90;;;;;;5009759;28;20713;-66
2024/01/14 08:35:11;;;;;;;10.52;1.55;;;3.40;99.90;;;;;;5011808;28;20029;-66
2024/01/14 08:37:36;;;;;;;6.80;1.50;;;3.40;99.90;;;;;;5014747;28;20516;-65
2024/01/14 08:40:02;;;;;;;9.50;1.58;;;3.50;99.90;;;;;;5013178;28;20060;-66
2024/01/14 08:42:28;;;;;;;7.20;1.63;;;3.50;99.90;;;;;;5013844;28;20037;-66
2024/01/14 08:44:53;;;;;;;6.57;1.73;;;3.50;99.90;;;;;;5011190;28;20079;-65
2024/01/14 08:47:19;;;;;;;7.13;1.63;;;3.50;99.90;;;;;;5004855;28;20029;-66
2024/01/14 08:49:45;;;;;;;7.30;2.00;;;3.50;99.90;;;;;;5010695;28;20021;-66
2024/01/14 08:52:11;;;;;;;7.07;1.52;;;3.60;99.90;;;;;;5010748;28;20037;-65
2024/01/14 08:54:40;;;;;;;6.57;1.73;;;3.60;99.90;;;;;;5012017;28;20026;-66
2024/01/14 08:57:07;;;;;;;7.85;1.25;;;3.60;99.90;;;;;;5010211;28;20036;-65
2024/01/14 08:59:33;;;;;;;5.15;1.60;;;3.70;99.90;;;;;;5017120;28;20037;-67
2024/01/14 09:01:58;;;;;;;9.10;1.80;;;3.70;99.90;;;;;;5007218;28;20653;-66
2024/01/14 09:04:23;;;;;;;7.95;1.50;;;3.70;99.90;;;;;;5006954;28;20041;-66
2024/01/14 09:06:49;;;;;;;6.13;1.45;;;3.80;99.90;;;;;;5005652;28;20095;-65
2024/01/14 09:09:15;;;;;;;7.38;1.52;;;3.80;99.90;;;;;;5005375;28;20027;-66
2024/01/14 09:11:41;;;;;;;8.68;1.98;;;3.80;99.90;;;;;;5011798;28;20059;-65
2024/01/14 09:14:06;;;;;;;9.75;1.80;;;3.80;99.90;;;;;;5011319;28;20055;-65
2024/01/14 09:16:32;;;;;;;7.45;1.27;;;3.90;99.90;;;;;;5010887;28;20036;-65
2024/01/14 09:18:57;;;;;;;7.97;1.52;;;3.90;99.90;;;;;;5004780;28;20107;-65
2024/01/14 09:21:23;;;;;;;4.82;1.42;;;3.90;99.90;;;;;;5006838;28;20104;-65
2024/01/14 09:23:49;;;;;;;7.97;1.63;;;4.00;99.90;;;;;;5016503;28;20033;-65
2024/01/14 09:26:14;;;;;;;5.45;1.60;;;4.00;99.90;;;;;;5013553;28;20051;-65
2024/01/14 09:28:40;;;;;;;5.88;1.60;;;4.00;99.90;;;;;;5013659;28;20041;-66
2024/01/14 09:31:06;;;;;;;8.48;2.30;;;4.10;99.90;;;;;;5007620;28;20095;-65
2024/01/14 09:33:31;;;;;;;3.45;1.35;;;4.20;99.90;;;;;;5015996;28;20517;-65
2024/01/14 09:36:05;;;;;;;9.85;1.73;;;4.20;99.90;;;;;;5004705;28;20100;-65
2024/01/14 09:38:30;;;;;;;3.75;1.25;;;4.20;99.90;;;;;;5009930;28;20030;-65
2024/01/14 09:41:21;;;;;;;7.13;1.30;;;4.20;99.90;;;;;;5010412;28;20547;-64
2024/01/14 09:43:50;;;;;;;5.10;1.30;;;4.20;99.90;;;;;;5008395;28;20135;-63
2024/01/14 09:46:16;;;;;;;6.18;1.70;;;4.20;99.90;;;;;;5012545;28;20029;-64
2024/01/14 09:48:43;;;;;;;9.68;1.55;;;4.20;99.90;;;;;;5015192;28;20095;-63
2024/01/14 09:51:10;;;;;;;5.50;0.90;;;4.20;99.90;;;;;;5010597;28;20033;-63
2024/01/14 09:53:36;;;;;;;7.43;1.35;;;4.20;99.90;;;;;;5018890;28;20037;-63
2024/01/14 09:56:07;;;;;;;5.22;0.93;;;4.10;99.90;;;;;;5014684;28;20597;-64
2024/01/14 09:58:34;;;;;;;3.67;1.20;;;4.10;99.90;;;;;;5009528;28;20041;-63
2024/01/14 10:01:03;;;;;;;6.53;1.10;;;4.00;99.90;;;;;;5007477;28;20486;-64
2024/01/14 10:03:29;;;;;;;6.82;1.63;;;4.00;99.90;;;;;;5002778;28;20030;-63
2024/01/14 10:05:55;;;;;;;6.82;1.25;;;4.00;99.90;;;;;;5016729;28;20033;-65
2024/01/14 10:08:22;;;;;;;6.20;1.38;;;4.00;99.90;;;;;;5004942;28;20025;-64
2024/01/14 10:10:54;;;;;;;5.53;1.75;;;4.00;99.90;;;;;;5013629;28;20608;-64
2024/01/14 10:13:22;;;;;;;5.07;1.83;;;4.00;99.90;;;;;;5007929;28;20402;-64
2024/01/14 10:15:48;;;;;;;4.32;1.40;;;4.00;99.90;;;;;;5017005;28;20042;-63
2024/01/14 10:18:14;;;;;;;10.90;2.33;;;4.00;99.90;;;;;;5011653;28;20910;-65
2024/01/14 10:20:40;;;;;;;9.60;1.27;;;4.00;99.90;;;;;;5010882;28;20529;-64
2024/01/14 10:23:06;;;;;;;7.90;1.95;;;4.00;99.90;;;;;;5014177;28;20041;-64
2024/01/14 10:25:31;;;;;;;3.38;1.27;;;4.00;99.90;;;;;;5006923;28;20036;-65
2024/01/14 10:28:01;;;;;;;10.02;1.40;;;4.00;99.90;;;;;;5006896;28;20026;-63
2024/01/14 10:30:27;;;;;;;3.25;1.45;;;4.10;99.90;;;;;;5013473;28;20107;-64
2024/01/14 10:32:53;;;;;;;7.95;1.85;;;4.10;99.90;;;;;;5007216;28;20505;-63
2024/01/14 10:35:18;;;;;;;5.10;1.65;;;4.10;99.90;;;;;;5001858;28;20397;-66
2024/01/14 10:37:45;;;;;;;4.47;2.22;;;4.10;99.90;;;;;;5009738;28;20103;-65
2024/01/14 10:40:12;;;;;;;6.75;2.47;;;4.10;99.90;;;;;;5009335;28;20018;-66
2024/01/14 10:42:38;;;;;;;7.22;2.70;;;4.10;99.90;;;;;;5004078;28;20549;-64
2024/01/14 10:45:07;;;;;;;8.05;1.88;;;4.10;99.90;;;;;;5011211;28;20029;-64
2024/01/14 10:47:34;;;;;;;6.13;2.03;;;4.10;99.90;;;;;;5009276;28;20430;-63
2024/01/14 10:50:00;;;;;;;6.70;2.08;;;4.10;99.90;;;;;;5011539;28;20774;-63
2024/01/14 10:52:28;;;;;;;6.60;2.08;;;4.10;99.90;;;;;;5006067;28;20017;-64
2024/01/14 10:54:58;;;;;;;7.13;1.60;;;4.20;99.90;;;;;;5011094;28;20722;-64
2024/01/14 10:57:34;;;;;;;3.97;1.40;;;4.20;99.90;;;;;;5003868;28;20061;-63
2024/01/14 11:00:08;;;;;;;6.65;1.60;;;4.30;99.90;;;;;;5016043;28;20037;-63
2024/01/14 11:02:35;;;;;;;3.33;1.13;;;4.30;99.90;;;;;;5007026;28;20038;-63
2024/01/14 11:05:03;;;;;;;9.35;1.60;;;4.30;99.90;;;;;;5013418;28;20025;-63
2024/01/14 11:07:30;;;;;;;4.15;1.27;;;4.40;99.90;;;;;;5010622;28;20025;-65
2024/01/14 11:09:56;;;;;;;6.07;1.42;;;4.40;99.90;;;;;;5014230;28;20525;-65
2024/01/14 11:12:41;;;;;;;4.10;1.25;;;4.40;99.90;;;;;;5012574;28;20032;-65
2024/01/14 11:15:28;;;;;;;5.03;1.20;;;4.30;99.90;;;;;;5010638;28;20122;-66
2024/01/14 11:18:01;;;;;;;3.78;1.20;;;4.30;99.90;;;;;;5007580;28;20034;-65
2024/01/14 11:20:31;;;;;;;7.13;1.52;;;4.30;99.90;;;;;;5003083;28;20044;-65
2024/01/14 11:22:57;;;;;;;8.20;1.60;;;4.30;99.90;;;;;;5012347;28;20685;-66
2024/01/14 11:25:30;;;;;;;5.07;1.77;;;4.30;99.90;;;;;;5012029;28;20100;-66
2024/01/14 11:27:55;;;;;;;6.38;1.55;;;4.30;99.90;;;;;;5013438;28;20018;-65
2024/01/14 11:30:46;;;;;;;8.90;2.50;;;4.30;99.90;;;;;;5007314;28;20075;-65
2024/01/14 11:33:26;;;;;;;5.55;2.00;;;4.40;99.90;;;;;;5007296;28;20022;-66
2024/01/14 11:35:52;;;;;;;6.85;1.92;;;4.40;99.90;;;;;;5011722;28;20493;-65
2024/01/14 11:38:34;;;;;;;6.50;1.50;;;4.40;99.90;;;;;;5010190;28;20030;-66
2024/01/14 11:41:28;;;;;;;6.43;1.95;;;4.40;99.90;;;;;;5006902;28;20032;-67
2024/01/14 11:43:58;;;;;;;6.05;1.48;;;4.30;99.90;;;;;;5008177;28;20018;-66
2024/01/14 11:46:47;;;;;;;9.65;1.60;;;4.40;99.90;;;;;;5010290;28;20093;-65
2024/01/14 11:49:22;;;;;;;7.32;1.63;;;4.40;99.90;;;;;;5005413;28;20032;-66
2024/01/14 11:51:51;;;;;;;3.45;1.10;;;4.40;99.90;;;;;;5013506;28;20041;-67
2024/01/14 11:54:17;;;;;;;8.38;1.83;;;4.30;99.90;;;;;;5016660;28;20034;-66
2024/01/14 11:56:43;;;;;;;4.63;1.38;;;4.30;99.90;;;;;;5007812;28;20030;-66
2024/01/14 11:59:09;;;;;;;2.40;1.10;;;4.40;99.90;;;;;;5013923;28;20053;-66
2024/01/14 12:01:36;;;;;;;3.92;1.20;;;4.50;99.90;;;;;;5007590;28;20038;-63
2024/01/14 12:04:08;;;;;;;10.82;1.70;;;4.60;99.90;;;;;;5008008;28;20021;-66
2024/01/14 12:06:40;;;;;;;4.43;1.27;;;4.50;99.90;;;;;;5008618;28;20034;-66
2024/01/14 12:09:08;;;;;;;7.75;1.67;;;4.60;99.90;;;;;;5013977;28;20022;-66
2024/01/14 12:11:34;;;;;;;5.28;1.63;;;4.50;99.90;;;;;;5016429;28;20036;-66
2024/01/14 12:14:00;;;;;;;4.57;1.40;;;4.50;99.90;;;;;;5015079;28;20031;-66
2024/01/14 12:16:25;;;;;;;4.15;2.00;;;4.50;99.90;;;;;;5012878;28;20037;-66
2024/01/14 12:18:51;;;;;;;5.70;1.70;;;4.50;99.90;;;;;;5015184;28;20091;-66
2024/01/14 12:21:19;;;;;;;7.53;2.00;;;4.50;99.90;;;;;;5006338;28;20327;-66
2024/01/14 12:23:47;;;;;;;6.65;2.30;;;4.50;99.90;;;;;;5015367;28;20025;-66
2024/01/14 12:26:13;;;;;;;6.72;2.15;;;4.40;99.90;;;;;;5018738;28;20057;-66
2024/01/14 12:28:39;;;;;;;3.38;1.60;;;4.40;99.90;;;;;;5016992;28;20056;-66
2024/01/14 12:31:05;;;;;;;3.42;1.38;;;4.40;99.90;;;;;;5005838;28;20026;-66
2024/01/14 12:33:30;;;;;;;5.10;1.70;;;4.40;99.90;;;;;;5012426;28;20030;-66
2024/01/14 12:35:57;;;;;;;3.97;1.98;;;4.40;99.90;;;;;;5011922;28;20038;-66
2024/01/14 12:38:22;;;;;;;5.97;1.60;;;4.40;99.90;;;;;;5005459;28;20035;-66
2024/01/14 12:40:48;;;;;;;8.18;1.70;;;4.40;99.90;;;;;;5006181;28;20043;-66
2024/01/14 12:43:14;;;;;;;4.68;1.98;;;4.40;99.90;;;;;;5007910;28;20053;-66
2024/01/14 12:45:51;;;;;;;6.57;1.77;;;4.40;99.90;;;;;;5016140;28;20022;-66
2024/01/14 12:48:23;;;;;;;6.10;1.60;;;4.50;99.90;;;;;;5015174;28;20033;-66
2024/01/14 12:50:56;;;;;;;5.07;1.55;;;4.50;99.90;;;;;;5007503;28;20026;-66
2024/01/14 12:53:21;;;;;;;10.27;1.60;;;4.40;99.90;;;;;;5008580;28;20158;-65